Time;durP1;ratioP1;P1;durP2;ratioP2;P2;SDS_P1;SDS_P2;PMS_P1;PMS_P2;Temp;Humidity;BMP_temperature;BMP_pressure;BME280_temperature;BME280_humidity;BME280_pressure;Samples;Min_cycle;Max_cycle;Signal;HPM_P1;HPM_P2
2022/03/12 00:09:07;;;;;;;37.50;14.30;;;;;;;-3.90;44.97;100143.07;432521;1271;111046;-41
2022/03/12 00:19:14;;;;;;;31.70;12.10;;;;;;;-3.80;45.45;100137.20;432559;1271;108791;-39
2022/03/12 00:29:21;;;;;;;46.40;15.50;;;;;;;-3.77;45.75;100133.40;432458;1271;96951;-40
2022/03/12 00:39:30;;;;;;;38.40;14.20;;;;;;;-3.80;45.94;100132.34;432476;1271;111175;-40
2022/03/12 00:49:37;;;;;;;41.20;14.50;;;;;;;-3.81;45.90;100120.38;432453;1271;108760;-42
2022/03/12 01:09:50;;;;;;;31.70;12.90;;;;;;;-3.87;46.14;100121.18;432660;1271;109264;-40
2022/03/12 01:19:58;;;;;;;36.50;12.70;;;;;;;-3.95;46.32;100115.35;432440;1271;108839;-41
2022/03/12 01:30:08;;;;;;;44.80;15.20;;;;;;;-3.96;46.29;100110.23;432505;1270;96613;-42
2022/03/12 01:40:13;;;;;;;72.40;19.00;;;;;;;-4.00;46.46;100100.48;432543;1271;97158;-40
2022/03/12 01:50:18;;;;;;;48.10;17.50;;;;;;;-4.08;46.50;100100.30;432600;1271;96703;-40
2022/03/12 02:10:31;;;;;;;29.50;12.50;;;;;;;-4.12;46.80;100079.38;432470;1271;97980;-39
2022/03/12 02:20:38;;;;;;;35.60;13.80;;;;;;;-4.07;46.61;100076.48;432672;1271;111155;-42
2022/03/12 02:40:55;;;;;;;38.30;13.30;;;;;;;-4.00;46.59;100071.77;432361;1271;97556;-40
2022/03/12 02:51:02;;;;;;;25.40;11.80;;;;;;;-3.99;46.58;100059.30;432584;1271;111117;-42
2022/03/12 03:01:14;;;;;;;22.20;9.10;;;;;;;-3.99;46.52;100054.11;432391;1271;109739;-39
2022/03/12 03:11:26;;;;;;;21.70;8.80;;;;;;;-3.99;46.53;100054.83;432403;1271;97910;-42
2022/03/12 03:21:34;;;;;;;22.80;8.90;;;;;;;-4.08;46.52;100061.56;432471;1271;111082;-40
2022/03/12 03:31:42;;;;;;;20.00;8.70;;;;;;;-4.18;46.77;100060.17;432419;1271;108850;-40
2022/03/12 03:41:50;;;;;;;27.60;9.70;;;;;;;-4.20;46.81;100064.27;432467;1271;98225;-41
2022/03/12 03:51:58;;;;;;;23.90;10.20;;;;;;;-4.26;46.95;100064.30;432476;1271;108989;-41
2022/03/12 04:02:05;;;;;;;23.60;8.50;;;;;;;-4.29;47.04;100069.35;432470;1271;97369;-40
2022/03/12 04:12:13;;;;;;;23.10;8.70;;;;;;;-4.33;47.10;100061.17;432864;1270;111067;-40
2022/03/12 04:22:21;;;;;;;26.60;9.50;;;;;;;-4.31;47.37;100061.89;432724;1270;109038;-43
2022/03/12 04:32:30;;;;;;;26.70;10.30;;;;;;;-4.30;47.38;100053.73;432770;1271;97926;-43
2022/03/12 04:42:43;;;;;;;36.80;17.20;;;;;;;-4.29;47.64;100052.96;432890;1270;108961;-40
2022/03/12 04:52:50;;;;;;;38.20;15.30;;;;;;;-4.47;47.60;100049.14;432865;1270;97901;-40
2022/03/12 05:03:01;;;;;;;46.20;16.60;;;;;;;-4.67;47.90;100043.06;432683;1270;110973;-42
2022/03/12 05:13:10;;;;;;;43.90;18.00;;;;;;;-4.82;48.05;100047.64;432641;1270;108837;-40
2022/03/12 05:23:18;;;;;;;45.30;22.10;;;;;;;-4.91;48.22;100056.98;432582;1270;98085;-40
2022/03/12 05:33:27;;;;;;;29.50;14.20;;;;;;;-4.94;48.44;100056.13;432870;1270;110038;-40
2022/03/12 05:43:34;;;;;;;36.10;17.80;;;;;;;-4.73;49.04;100044.52;432792;1270;108813;-40
2022/03/12 05:53:43;;;;;;;28.20;13.90;;;;;;;-4.03;49.03;100031.45;432777;1270;96628;-41
2022/03/12 06:03:53;;;;;;;22.10;8.90;;;;;;;-3.69;49.07;100034.48;432954;1270;107767;-40
2022/03/12 06:24:06;;;;;;;39.10;12.90;;;;;;;-1.27;47.65;100019.96;432687;1270;110895;-41
2022/03/12 06:34:13;;;;;;;36.40;16.50;;;;;;;-0.50;46.44;100014.48;432471;1270;109190;-42
2022/03/12 06:44:23;;;;;;;36.90;14.20;;;;;;;-0.31;45.02;100018.59;432398;1271;108818;-41
2022/03/12 06:54:28;;;;;;;40.70;16.00;;;;;;;0.07;44.37;100029.29;432448;1271;97896;-40
2022/03/12 07:04:36;;;;;;;34.40;15.10;;;;;;;0.50;44.04;100031.35;432496;1271;111779;-40
2022/03/12 07:14:42;;;;;;;35.90;15.80;;;;;;;0.69;43.85;100036.21;432380;1271;109786;-39
2022/03/12 07:24:50;;;;;;;30.40;13.90;;;;;;;1.00;43.80;100039.02;432426;1271;108753;-40
2022/03/12 07:34:57;;;;;;;25.00;12.50;;;;;;;1.66;43.77;100034.55;432413;1271;97945;-40
2022/03/12 07:45:06;;;;;;;27.30;12.20;;;;;;;2.33;42.76;100042.83;432500;1271;110144;-43
2022/03/12 07:55:16;;;;;;;28.70;12.00;;;;;;;2.71;42.07;100047.05;432749;1271;107942;-43
2022/03/12 08:05:25;;;;;;;24.70;12.50;;;;;;;3.07;40.70;100050.23;432679;1270;108802;-40
2022/03/12 08:15:33;;;;;;;26.30;12.70;;;;;;;3.51;40.15;100047.92;432409;1271;96689;-41
2022/03/12 08:35:47;;;;;;;28.80;10.70;;;;;;;4.28;38.53;100030.94;432850;1270;111101;-41
2022/03/12 08:45:54;;;;;;;27.30;11.60;;;;;;;4.65;38.35;100021.27;432392;1271;108880;-43
2022/03/12 08:56:01;;;;;;;22.10;11.70;;;;;;;5.11;38.51;100010.15;432418;1271;108162;-41
2022/03/12 09:06:09;;;;;;;16.90;9.80;;;;;;;5.05;35.69;100013.89;431890;1271;787611;-41
2022/03/12 09:16:16;;;;;;;22.00;7.60;;;;;;;4.90;34.81;100005.40;432348;1271;111368;-40
2022/03/12 09:26:27;;;;;;;15.00;8.50;;;;;;;5.58;36.24;100007.80;432453;1271;108473;-41
2022/03/12 09:36:36;;;;;;;13.50;8.70;;;;;;;5.84;34.72;99999.41;432491;1271;108861;-44
2022/03/12 09:46:43;;;;;;;17.10;8.80;;;;;;;5.62;34.09;99997.24;432585;1271;97505;-41
2022/03/12 09:56:50;;;;;;;14.70;8.70;;;;;;;6.03;34.81;99987.48;432570;1271;111062;-41
2022/03/12 10:17:04;;;;;;;22.60;11.50;;;;;;;6.06;34.03;99973.61;432445;1271;108633;-42
2022/03/12 10:27:11;;;;;;;17.10;9.20;;;;;;;6.05;34.15;99968.82;432521;1270;97044;-43
2022/03/12 10:37:19;;;;;;;20.00;9.60;;;;;;;6.38;33.42;99962.12;432840;1270;110910;-41
2022/03/12 10:47:27;;;;;;;21.00;10.50;;;;;;;6.29;32.63;99952.49;432878;1270;108948;-41
2022/03/12 10:57:36;;;;;;;18.50;10.80;;;;;;;6.50;33.16;99945.45;432780;1270;108972;-40
2022/03/12 11:07:43;;;;;;;22.40;12.30;;;;;;;6.77;32.86;99938.16;432741;1271;96595;-42
2022/03/12 11:17:52;;;;;;;15.70;9.20;;;;;;;6.98;32.61;99922.77;432757;1270;111056;-41
2022/03/12 11:27:57;;;;;;;19.20;10.50;;;;;;;6.91;30.86;99908.16;432759;1270;108828;-42
2022/03/12 11:48:18;;;;;;;15.00;8.80;;;;;;;7.01;29.81;99887.67;432859;1270;98163;-41
2022/03/12 11:58:25;;;;;;;17.30;9.20;;;;;;;7.20;29.61;99880.95;432635;1271;111168;-40
2022/03/12 12:08:33;;;;;;;13.90;8.20;;;;;;;7.46;30.07;99880.00;432668;1270;108473;-40
2022/03/12 12:18:40;;;;;;;17.60;8.30;;;;;;;7.42;29.32;99871.44;432726;1270;108803;-44
2022/03/12 12:39:13;;;;;;;18.50;8.00;;;;;;;7.63;29.55;99854.55;432460;1271;96631;-43
2022/03/12 12:49:32;;;;;;;17.70;9.70;;;;;;;7.57;27.88;99842.63;432833;1271;111080;-41
2022/03/12 13:20:32;;;;;;;15.70;8.30;;;;;;;7.45;28.01;99810.75;432648;1271;98024;-42
2022/03/12 13:30:40;;;;;;;19.30;12.00;;;;;;;7.48;28.19;99806.83;432489;1271;111084;-42
2022/03/12 13:40:46;;;;;;;29.50;13.50;;;;;;;7.45;28.14;99793.67;432526;1273;108399;-40
2022/03/12 14:01:05;;;;;;;19.50;8.70;;;;;;;7.62;27.73;99779.34;432413;1271;96719;-40
2022/03/12 14:11:13;;;;;;;18.00;10.00;;;;;;;7.57;27.76;99777.61;432528;1271;110964;-41
2022/03/12 14:21:22;;;;;;;14.30;8.10;;;;;;;7.61;27.90;99764.41;432347;1273;109127;-40
2022/03/12 14:31:29;;;;;;;19.50;9.10;;;;;;;7.62;27.85;99751.40;432648;1271;108943;-40
2022/03/12 14:41:37;;;;;;;21.70;9.80;;;;;;;7.59;28.32;99740.38;432648;1271;97942;-39
2022/03/12 15:02:07;;;;;;;20.40;10.10;;;;;;;7.34;28.45;99721.83;432648;1271;108923;-40
2022/03/12 15:12:17;;;;;;;22.90;11.40;;;;;;;7.21;28.73;99727.19;432456;1271;109241;-41
2022/03/12 15:22:26;;;;;;;22.40;10.30;;;;;;;7.08;29.06;99728.98;432571;1271;96702;-40
2022/03/12 15:42:41;;;;;;;18.40;10.40;;;;;;;6.70;29.34;99729.38;432515;1271;108793;-41
2022/03/12 15:52:51;;;;;;;18.50;10.10;;;;;;;6.53;29.43;99731.19;432701;1271;108693;-42
2022/03/12 16:02:58;;;;;;;17.20;10.20;;;;;;;6.36;28.83;99730.98;432562;1271;96729;-40
2022/03/12 16:13:06;;;;;;;22.10;10.10;;;;;;;6.14;28.69;99724.08;432454;1271;111161;-40
2022/03/12 16:23:13;;;;;;;19.40;8.50;;;;;;;5.87;28.98;99729.11;432617;1271;108626;-42
2022/03/12 16:33:22;;;;;;;18.10;9.60;;;;;;;5.53;29.28;99725.12;432561;1271;108859;-40
2022/03/12 16:43:32;;;;;;;25.60;11.70;;;;;;;5.13;29.59;99723.16;432164;1272;97919;-41
2022/03/12 16:53:39;;;;;;;29.40;13.40;;;;;;;4.72;29.67;99726.89;432585;1271;111242;-40
2022/03/12 17:03:47;;;;;;;32.00;15.10;;;;;;;4.34;29.90;99726.23;432337;1271;107446;-41
2022/03/12 17:13:54;;;;;;;41.40;15.80;;;;;;;3.96;30.23;99718.10;432467;1271;109703;-40
2022/03/12 17:24:03;;;;;;;40.20;19.30;;;;;;;3.56;30.45;99716.13;432599;1271;97091;-43
2022/03/12 17:34:12;;;;;;;60.30;24.60;;;;;;;3.22;30.81;99716.17;432525;1269;111127;-40
2022/03/12 17:44:21;;;;;;;65.80;30.20;;;;;;;2.92;31.10;99717.83;432728;1271;107872;-40
2022/03/12 17:54:28;;;;;;;74.00;32.40;;;;;;;2.64;31.48;99707.91;432518;1271;108899;-41
2022/03/12 18:04:39;;;;;;;122.10;47.80;;;;;;;2.39;31.68;99713.86;432558;1271;97937;-40
2022/03/12 18:14:46;;;;;;;82.50;32.00;;;;;;;2.19;32.04;99726.24;432646;1271;109970;-41
2022/03/12 18:24:54;;;;;;;68.60;31.70;;;;;;;2.02;32.33;99731.59;432625;1271;106985;-42
2022/03/12 18:35:02;;;;;;;68.70;32.10;;;;;;;1.81;32.89;99733.28;432636;1270;109441;-41
2022/03/12 18:45:12;;;;;;;74.40;37.50;;;;;;;1.55;33.21;99732.42;432592;1271;96729;-44
2022/03/12 18:55:22;;;;;;;86.70;36.90;;;;;;;1.35;33.67;99727.36;432542;1271;111003;-41
2022/03/12 19:05:29;;;;;;;94.60;41.50;;;;;;;1.08;34.04;99726.76;432552;1271;107693;-43
2022/03/12 19:15:39;;;;;;;141.50;56.10;;;;;;;0.88;34.15;99729.53;432470;1271;107072;-40
2022/03/12 19:25:47;;;;;;;188.10;68.20;;;;;;;0.71;34.61;99721.02;432543;1271;97618;-41
2022/03/12 19:45:59;;;;;;;195.80;71.00;;;;;;;0.26;35.37;99714.51;432497;1271;97991;-43
2022/03/12 19:56:07;;;;;;;191.50;68.60;;;;;;;-0.02;35.75;99716.44;432536;1271;96983;-41
2022/03/12 20:06:16;;;;;;;159.20;60.20;;;;;;;-0.31;36.51;99718.50;432432;1271;97598;-41
2022/03/12 20:26:27;;;;;;;164.80;62.50;;;;;;;-0.61;37.04;99714.38;432541;1271;107744;-41
2022/03/12 20:36:35;;;;;;;121.30;51.20;;;;;;;-0.42;37.12;99717.39;432354;1271;97945;-42
2022/03/12 20:46:41;;;;;;;131.00;50.60;;;;;;;-0.37;36.81;99716.92;432712;1271;109987;-40
2022/03/12 20:56:48;;;;;;;134.30;46.90;;;;;;;-0.37;36.71;99714.83;432456;1271;108025;-42
2022/03/12 21:06:55;;;;;;;133.50;50.40;;;;;;;-0.34;36.91;99707.85;427873;1272;5609644;-44
2022/03/12 21:17:03;;;;;;;191.40;65.50;;;;;;;-0.36;37.16;99704.21;432281;1271;109356;-42
2022/03/12 21:27:10;;;;;;;252.10;79.40;;;;;;;-0.47;37.32;99697.79;432553;1271;97994;-41
2022/03/12 21:37:20;;;;;;;213.70;77.70;;;;;;;-0.69;37.47;99692.33;431765;1272;110898;-40
2022/03/12 21:47:26;;;;;;;213.20;78.60;;;;;;;-0.86;37.63;99692.45;432463;1271;107867;-42
2022/03/12 21:57:33;;;;;;;208.90;77.40;;;;;;;-0.96;37.97;99687.38;432466;1272;96764;-40
2022/03/12 22:07:44;;;;;;;189.90;68.70;;;;;;;-1.03;38.00;99686.46;432510;1271;111069;-42
2022/03/12 22:17:51;;;;;;;184.20;68.00;;;;;;;-1.14;38.62;99675.31;432442;1271;108856;-41
2022/03/12 22:28:00;;;;;;;179.70;66.10;;;;;;;-1.25;38.60;99673.21;432441;1271;97939;-40
2022/03/12 22:48:16;;;;;;;251.90;86.40;;;;;;;-1.27;39.06;99670.52;432461;1271;108781;-40
2022/03/12 23:18:56;;;;;;;234.80;82.50;;;;;;;-1.59;39.82;99653.97;432474;1271;109080;-42
2022/03/12 23:29:06;;;;;;;202.40;73.00;;;;;;;-1.71;39.96;99657.23;432299;1271;97905;-40
2022/03/12 23:39:14;;;;;;;220.80;79.10;;;;;;;-1.82;40.32;99654.70;431785;1272;108909;-41
2022/03/12 23:49:22;;;;;;;208.30;73.20;;;;;;;-1.93;40.88;99660.42;432552;1271;109584;-41
2022/03/12 23:59:40;;;;;;;195.40;71.10;;;;;;;-2.03;41.07;99653.64;432628;1271;98025;-40
